Terminal Aerodrome Forecast
Issued by NWS

Home | Current Version | Previous Version | Text Only | Print | Product List | Glossary On
Versions: 1 2 3 4 5 6 7 8 9 10 11 12 13 14 15 16
000
FTPA31 PHFO 251700
TAFOGG
TAF
PHOG 251731Z 2518/2618 16005KT P6SM FEW040
     FM251900 06008KT P6SM FEW040
     FM252100 06014G23KT P6SM FEW030 SCT060
     FM260500 06010KT P6SM VCSH FEW025 SCT045
      AMD LTD TO WX VIS AND WIND 2609/2616=

USA.gov is the U.S. government's official web portal to all federal, state and local government web resources and services.